createdAt,value
2023-03-28T00:01:02.240Z,99.90
2023-03-28T00:03:29.836Z,99.90
2023-03-28T00:06:01.152Z,99.90
2023-03-28T00:08:30.680Z,99.90
2023-03-28T00:11:05.979Z,99.90
2023-03-28T00:13:33.603Z,99.90
2023-03-28T00:16:09.149Z,99.90
2023-03-28T00:18:39.221Z,99.90
2023-03-28T00:21:18.091Z,99.90
2023-03-28T00:23:46.470Z,99.90
2023-03-28T00:26:13.533Z,99.90
2023-03-28T00:28:40.392Z,99.90
2023-03-28T00:31:08.683Z,99.90
2023-03-28T00:33:35.738Z,99.90
2023-03-28T00:36:03.367Z,99.90
2023-03-28T00:38:31.392Z,99.90
2023-03-28T00:41:00.341Z,99.90
2023-03-28T00:43:39.112Z,99.90
2023-03-28T00:46:11.940Z,99.90
2023-03-28T00:48:42.270Z,99.90
2023-03-28T00:51:09.671Z,99.90
2023-03-28T00:53:37.991Z,99.90
2023-03-28T00:56:10.408Z,99.90
2023-03-28T00:58:44.898Z,99.90
2023-03-28T01:01:16.025Z,99.90
2023-03-28T01:03:47.173Z,99.90
2023-03-28T01:06:15.591Z,99.90
2023-03-28T01:08:44.811Z,99.90
2023-03-28T01:11:13.905Z,99.90
2023-03-28T01:13:44.564Z,99.90
2023-03-28T01:16:13.895Z,99.90
2023-03-28T01:18:41.592Z,99.90
2023-03-28T01:21:37.310Z,99.90
2023-03-28T01:24:31.715Z,99.90
2023-03-28T01:27:07.750Z,99.90
2023-03-28T01:30:02.327Z,99.90
2023-03-28T01:33:04.401Z,99.90
2023-03-28T01:36:05.051Z,99.90
2023-03-28T01:38:39.778Z,99.90
2023-03-28T01:41:16.599Z,99.90
2023-03-28T01:43:50.552Z,99.90
2023-03-28T01:46:22.332Z,99.90
2023-03-28T01:48:58.574Z,99.90
2023-03-28T01:51:36.566Z,99.90
2023-03-28T01:54:12.843Z,99.90
2023-03-28T01:56:45.515Z,99.90
2023-03-28T01:59:17.698Z,99.90
2023-03-28T02:01:51.842Z,99.90
2023-03-28T02:04:21.558Z,99.90
2023-03-28T02:06:51.845Z,99.90
2023-03-28T02:09:24.806Z,99.90
2023-03-28T02:11:58.342Z,99.90
2023-03-28T02:14:28.338Z,99.90
2023-03-28T02:17:02.174Z,99.90
2023-03-28T02:19:31.123Z,99.90
2023-03-28T02:22:04.827Z,99.90
2023-03-28T02:24:33.178Z,99.90
2023-03-28T02:27:00.107Z,99.90
2023-03-28T02:29:28.688Z,99.90
2023-03-28T02:31:55.707Z,99.90
2023-03-28T02:34:22.731Z,99.90
2023-03-28T02:36:57.906Z,99.90
2023-03-28T02:39:51.179Z,99.90
2023-03-28T02:42:48.765Z,99.90
2023-03-28T02:45:35.217Z,99.90
2023-03-28T02:48:13.103Z,99.90
2023-03-28T02:50:45.078Z,99.90
2023-03-28T02:53:17.849Z,99.90
2023-03-28T02:55:57.825Z,99.90
2023-03-28T02:58:29.996Z,99.90
2023-03-28T03:00:57.271Z,99.90
2023-03-28T03:03:25.724Z,99.90
2023-03-28T03:05:52.973Z,99.90
2023-03-28T03:08:20.085Z,99.90
2023-03-28T03:10:48.660Z,99.90
2023-03-28T03:13:16.669Z,99.90
2023-03-28T03:15:43.901Z,99.90
2023-03-28T03:18:10.959Z,99.90
2023-03-28T03:20:38.129Z,99.90
2023-03-28T03:23:04.932Z,99.90
2023-03-28T03:25:32.078Z,99.90
2023-03-28T03:28:00.434Z,99.90
2023-03-28T03:30:27.823Z,99.90
2023-03-28T03:32:55.980Z,99.90
2023-03-28T03:35:23.386Z,99.90
2023-03-28T03:37:50.297Z,99.90
2023-03-28T03:40:18.266Z,99.90
2023-03-28T03:42:45.393Z,99.90
2023-03-28T03:45:13.848Z,99.90
2023-03-28T03:47:41.167Z,99.90
2023-03-28T03:50:09.468Z,99.90
2023-03-28T03:52:36.737Z,99.90
2023-03-28T03:55:04.178Z,99.90
2023-03-28T03:57:31.442Z,99.90
2023-03-28T03:59:58.425Z,99.90
2023-03-28T04:02:27.387Z,99.90
2023-03-28T04:04:54.276Z,99.90
2023-03-28T04:07:21.290Z,99.90
2023-03-28T04:09:48.183Z,99.90
2023-03-28T04:12:15.852Z,99.90
2023-03-28T04:14:42.670Z,99.90
2023-03-28T04:17:10.277Z,99.90
2023-03-28T04:19:40.657Z,99.90
2023-03-28T04:22:13.355Z,99.90
2023-03-28T04:24:41.657Z,99.90
2023-03-28T04:27:10.078Z,99.90
2023-03-28T04:29:37.421Z,99.90
2023-03-28T04:32:06.803Z,99.90
2023-03-28T04:34:33.755Z,99.90
2023-03-28T04:37:02.992Z,99.90
2023-03-28T04:39:30.498Z,99.90
2023-03-28T04:42:02.227Z,99.90
2023-03-28T04:44:29.474Z,99.90
2023-03-28T04:46:58.435Z,99.90
2023-03-28T04:49:25.727Z,99.90
2023-03-28T04:51:52.721Z,99.90
2023-03-28T04:54:21.182Z,99.90
2023-03-28T04:56:48.813Z,99.90
2023-03-28T04:59:16.196Z,99.90
2023-03-28T05:01:49.284Z,99.90
2023-03-28T05:04:17.688Z,99.90
2023-03-28T05:06:45.668Z,99.90
2023-03-28T05:09:13.485Z,99.90
2023-03-28T05:11:42.635Z,99.90
2023-03-28T05:14:10.156Z,99.90
2023-03-28T05:16:37.216Z,99.90
2023-03-28T05:19:04.411Z,99.90
2023-03-28T05:21:31.227Z,99.90
2023-03-28T05:23:58.424Z,99.90
2023-03-28T05:26:25.626Z,99.90
2023-03-28T05:28:53.928Z,99.90
2023-03-28T05:31:21.160Z,99.90
2023-03-28T05:33:48.245Z,99.90
2023-03-28T05:36:15.165Z,99.90
2023-03-28T05:38:42.223Z,99.90
2023-03-28T05:41:09.073Z,99.90
2023-03-28T05:43:36.203Z,99.90
2023-03-28T05:46:05.031Z,99.90
2023-03-28T05:48:32.298Z,99.90
2023-03-28T05:50:59.415Z,99.90
2023-03-28T05:53:27.049Z,99.90
2023-03-28T05:55:53.839Z,99.90
2023-03-28T05:58:21.063Z,99.90
2023-03-28T06:00:47.930Z,99.90
2023-03-28T06:03:17.351Z,99.90
2023-03-28T06:05:44.964Z,99.90
2023-03-28T06:08:12.268Z,99.90
2023-03-28T06:10:39.602Z,99.90
2023-03-28T06:13:06.772Z,99.90
2023-03-28T06:15:33.760Z,99.90
2023-03-28T06:18:01.321Z,99.90
2023-03-28T06:20:29.677Z,99.90
2023-03-28T06:22:56.866Z,99.90
2023-03-28T06:25:23.725Z,99.90
2023-03-28T06:27:51.088Z,99.90
2023-03-28T06:30:18.979Z,99.90
2023-03-28T06:32:46.226Z,99.90
2023-03-28T06:35:13.349Z,99.90
2023-03-28T06:37:41.813Z,99.90
2023-03-28T06:40:09.515Z,99.90
2023-03-28T06:42:37.051Z,99.90
2023-03-28T06:45:04.351Z,99.90
2023-03-28T06:47:31.464Z,99.90
2023-03-28T06:49:58.348Z,99.90
2023-03-28T06:52:25.531Z,99.90
2023-03-28T06:54:53.667Z,99.90
2023-03-28T06:57:20.937Z,99.90
2023-03-28T06:59:48.270Z,99.90
2023-03-28T07:02:15.675Z,99.90
2023-03-28T07:04:42.676Z,99.90
2023-03-28T07:07:10.118Z,99.90
2023-03-28T07:09:37.186Z,99.90
2023-03-28T07:12:05.997Z,99.90
2023-03-28T07:14:33.240Z,99.90
2023-03-28T07:17:00.693Z,99.90
2023-03-28T07:19:27.684Z,99.90
2023-03-28T07:21:54.535Z,99.90
2023-03-28T07:24:21.523Z,99.90
2023-03-28T07:26:48.871Z,99.90
2023-03-28T07:29:17.049Z,99.90
2023-03-28T07:31:44.076Z,99.90
2023-03-28T07:34:11.151Z,99.90
2023-03-28T07:36:42.127Z,99.90
2023-03-28T07:39:09.007Z,99.90
2023-03-28T07:41:35.872Z,99.90
2023-03-28T07:44:02.755Z,99.90
2023-03-28T07:46:32.201Z,99.90
2023-03-28T07:49:00.821Z,99.90
2023-03-28T07:51:27.916Z,99.90
2023-03-28T07:53:54.883Z,99.90
2023-03-28T07:56:22.165Z,99.90
2023-03-28T07:58:48.960Z,99.90
2023-03-28T08:01:18.977Z,99.90
2023-03-28T08:03:47.242Z,99.90
2023-03-28T08:06:29.168Z,99.90
2023-03-28T08:08:58.779Z,99.90
2023-03-28T08:11:27.228Z,99.90
2023-03-28T08:13:54.110Z,99.90
2023-03-28T08:16:22.620Z,99.90
2023-03-28T08:19:03.515Z,85.60
2023-03-28T08:21:37.755Z,73.80
2023-03-28T08:24:06.089Z,84.80
2023-03-28T08:26:33.210Z,63.30
2023-03-28T08:29:00.280Z,57.10
2023-03-28T08:31:28.725Z,40.50
2023-03-28T08:33:57.915Z,30.40
2023-03-28T08:36:27.570Z,29.10
2023-03-28T08:39:00.239Z,23.40
2023-03-28T08:41:43.258Z,14.00
2023-03-28T08:44:27.856Z,1.00
2023-03-28T08:46:58.468Z,6.80
2023-03-28T08:49:26.949Z,10.10
2023-03-28T08:51:58.341Z,4.60
2023-03-28T08:54:31.503Z,1.30
2023-03-28T08:57:01.379Z,1.00
2023-03-28T08:59:38.131Z,1.00
2023-03-28T09:02:15.695Z,1.00
2023-03-28T09:04:45.190Z,1.00
2023-03-28T09:07:22.365Z,1.00
2023-03-28T09:10:00.728Z,1.00
2023-03-28T09:12:40.865Z,1.00
2023-03-28T09:15:18.934Z,1.00
2023-03-28T09:18:03.879Z,1.00
2023-03-28T09:20:41.700Z,1.00
2023-03-28T09:23:22.550Z,1.00
2023-03-28T09:25:54.912Z,1.00
2023-03-28T09:28:32.849Z,1.00
2023-03-28T09:31:01.076Z,1.00
2023-03-28T09:33:31.347Z,1.00
2023-03-28T09:36:02.298Z,1.00
2023-03-28T09:38:33.668Z,1.00
2023-03-28T09:41:04.515Z,1.00
2023-03-28T09:43:36.910Z,1.00
2023-03-28T09:46:07.135Z,1.00
2023-03-28T09:48:36.749Z,1.00
2023-03-28T09:51:07.136Z,1.00
2023-03-28T09:53:36.798Z,1.00
2023-03-28T09:56:08.265Z,1.00
2023-03-28T09:58:49.645Z,1.00
2023-03-28T10:01:42.746Z,1.00
2023-03-28T10:04:12.596Z,1.00
2023-03-28T10:06:42.218Z,1.00
2023-03-28T10:09:22.321Z,1.00
2023-03-28T10:11:54.341Z,1.00
2023-03-28T10:14:33.525Z,1.00
2023-03-28T10:17:02.772Z,1.00
2023-03-28T10:19:34.350Z,1.00
2023-03-28T10:22:06.354Z,1.00
2023-03-28T10:24:34.552Z,1.00
2023-03-28T10:27:08.738Z,1.00
2023-03-28T10:29:37.407Z,1.00
2023-03-28T10:32:06.389Z,1.00
2023-03-28T10:34:35.416Z,1.00
2023-03-28T10:37:03.705Z,1.00
2023-03-28T10:39:32.675Z,1.00
2023-03-28T10:42:01.465Z,1.00
2023-03-28T10:44:31.125Z,1.00
2023-03-28T10:47:01.660Z,1.00
2023-03-28T10:49:31.264Z,1.00
2023-03-28T10:51:58.173Z,1.00
2023-03-28T10:54:41.826Z,1.00
2023-03-28T10:57:15.592Z,1.00
2023-03-28T10:59:54.939Z,1.00
2023-03-28T11:02:49.944Z,1.00
2023-03-28T11:05:34.953Z,1.00
2023-03-28T11:08:11.857Z,1.00
2023-03-28T11:10:48.665Z,1.00
2023-03-28T11:13:23.976Z,1.00
2023-03-28T11:15:59.319Z,1.00
2023-03-28T11:18:47.959Z,1.00
2023-03-28T11:21:21.657Z,1.00
2023-03-28T11:23:59.142Z,1.00
2023-03-28T11:26:40.030Z,1.00
2023-03-28T11:29:19.204Z,1.00
2023-03-28T11:31:55.209Z,1.00
2023-03-28T11:34:26.925Z,1.00
2023-03-28T11:37:00.849Z,1.00
2023-03-28T11:39:34.350Z,1.00
2023-03-28T11:42:08.505Z,1.00
2023-03-28T11:44:42.387Z,1.00
2023-03-28T11:47:12.903Z,1.00
2023-03-28T11:49:43.666Z,1.00
2023-03-28T11:52:16.478Z,1.00
2023-03-28T11:54:48.912Z,1.00
2023-03-28T11:57:22.245Z,1.00
2023-03-28T11:59:54.002Z,1.00
2023-03-28T12:02:40.190Z,1.00
2023-03-28T12:05:15.838Z,1.00
2023-03-28T12:07:49.216Z,1.00
2023-03-28T12:10:20.636Z,1.00
2023-03-28T12:12:58.400Z,1.00
2023-03-28T12:15:35.900Z,1.00
2023-03-28T12:18:06.568Z,1.00
2023-03-28T12:20:40.044Z,1.00
2023-03-28T12:23:12.780Z,1.00
2023-03-28T12:25:46.682Z,1.00
2023-03-28T12:28:23.459Z,1.00
2023-03-28T12:31:00.247Z,1.00
2023-03-28T12:33:40.158Z,1.00
2023-03-28T12:36:14.562Z,1.00
2023-03-28T12:38:48.166Z,1.00
2023-03-28T12:41:19.546Z,1.00
2023-03-28T12:43:54.321Z,1.00
2023-03-28T12:46:25.583Z,1.00
2023-03-28T12:48:57.790Z,1.00
2023-03-28T12:51:30.401Z,1.00
2023-03-28T12:54:05.804Z,1.00
2023-03-28T12:56:33.226Z,1.00
2023-03-28T12:59:15.653Z,1.00
2023-03-28T13:01:47.702Z,1.00
2023-03-28T13:04:25.084Z,1.00
2023-03-28T13:07:01.071Z,1.00
2023-03-28T13:09:54.586Z,1.00
2023-03-28T13:12:40.375Z,1.00
2023-03-28T13:15:28.945Z,1.00
2023-03-28T13:18:25.762Z,1.00
2023-03-28T13:20:52.924Z,1.00
2023-03-28T13:23:29.027Z,1.00
2023-03-28T13:25:58.018Z,1.00
2023-03-28T13:28:34.766Z,1.00
2023-03-28T13:31:13.102Z,1.00
2023-03-28T13:33:47.454Z,1.00
2023-03-28T13:36:27.223Z,1.00
2023-03-28T13:39:25.563Z,1.00
2023-03-28T13:42:00.240Z,1.00
2023-03-28T13:44:42.012Z,1.00
2023-03-28T13:47:18.269Z,1.00
2023-03-28T13:49:50.687Z,1.00
2023-03-28T13:52:21.178Z,1.00
2023-03-28T13:54:54.556Z,1.00
2023-03-28T13:57:25.763Z,1.00
2023-03-28T13:59:55.616Z,99.90
2023-03-28T14:02:35.534Z,1.00
2023-03-28T14:05:20.325Z,1.00
2023-03-28T14:07:47.570Z,1.00
2023-03-28T14:10:28.419Z,1.00
2023-03-28T14:12:58.907Z,1.00
2023-03-28T14:15:29.683Z,1.00
2023-03-28T14:18:03.162Z,1.00
2023-03-28T14:20:32.300Z,1.00
2023-03-28T14:23:01.258Z,1.00
2023-03-28T14:25:32.293Z,1.00
2023-03-28T14:28:07.979Z,1.00
2023-03-28T14:30:40.620Z,1.00
2023-03-28T14:33:20.201Z,99.90
2023-03-28T14:35:58.116Z,99.90
2023-03-28T14:38:30.937Z,99.90
2023-03-28T14:41:07.246Z,99.90
2023-03-28T14:43:35.636Z,99.90
2023-03-28T14:46:06.277Z,99.90
2023-03-28T14:48:37.268Z,99.90
2023-03-28T14:51:06.157Z,1.00
2023-03-28T14:53:37.656Z,1.00
2023-03-28T14:56:11.495Z,1.00
2023-03-28T14:58:42.206Z,99.90
2023-03-28T15:01:13.424Z,99.90
2023-03-28T15:03:45.918Z,99.90
2023-03-28T15:06:16.251Z,99.90
2023-03-28T15:08:45.256Z,99.90
2023-03-28T15:11:16.976Z,99.90
2023-03-28T15:13:46.782Z,99.90
2023-03-28T15:16:19.714Z,99.90
2023-03-28T15:18:56.019Z,99.90
2023-03-28T15:21:24.226Z,99.90
2023-03-28T15:23:55.446Z,99.90
2023-03-28T15:26:28.114Z,99.90
2023-03-28T15:28:56.619Z,99.90
2023-03-28T15:31:24.614Z,99.90
2023-03-28T15:33:54.563Z,99.90
2023-03-28T15:36:25.614Z,99.90
2023-03-28T15:38:59.943Z,99.90
2023-03-28T15:41:40.740Z,99.90
2023-03-28T15:44:21.467Z,99.90
2023-03-28T15:46:49.109Z,99.90
2023-03-28T15:49:17.613Z,99.90
2023-03-28T15:51:51.417Z,99.90
2023-03-28T15:54:30.278Z,99.90
2023-03-28T15:57:00.815Z,99.90
2023-03-28T15:59:33.117Z,99.90
2023-03-28T16:02:19.698Z,99.90
2023-03-28T16:05:02.508Z,99.90
2023-03-28T16:07:34.317Z,99.90
2023-03-28T16:10:01.333Z,99.90
2023-03-28T16:12:28.372Z,99.90
2023-03-28T16:14:55.394Z,99.90
2023-03-28T16:17:29.124Z,1.00
2023-03-28T16:19:56.202Z,1.00
2023-03-28T16:22:25.883Z,1.00
2023-03-28T16:24:54.197Z,1.00
2023-03-28T16:27:22.163Z,1.00
2023-03-28T16:29:49.350Z,1.00
2023-03-28T16:32:17.207Z,1.00
2023-03-28T16:34:44.735Z,1.00
2023-03-28T16:37:11.935Z,1.00
2023-03-28T16:39:40.265Z,1.00
2023-03-28T16:42:07.144Z,1.00
2023-03-28T16:44:34.070Z,1.00
2023-03-28T16:47:02.871Z,1.00
2023-03-28T16:49:29.997Z,1.00
2023-03-28T16:51:57.152Z,1.00
2023-03-28T16:54:24.762Z,1.00
2023-03-28T16:56:53.626Z,1.00
2023-03-28T16:59:20.629Z,1.00
2023-03-28T17:01:47.929Z,1.00
2023-03-28T17:04:15.038Z,1.00
2023-03-28T17:06:42.279Z,1.00
2023-03-28T17:09:09.172Z,1.00
2023-03-28T17:11:36.782Z,1.00
2023-03-28T17:14:05.626Z,1.00
2023-03-28T17:16:33.992Z,1.00
2023-03-28T17:19:00.904Z,1.00
2023-03-28T17:21:27.814Z,1.00
2023-03-28T17:23:55.414Z,1.00
2023-03-28T17:26:22.579Z,1.00
2023-03-28T17:28:50.853Z,1.00
2023-03-28T17:31:20.334Z,1.00
2023-03-28T17:33:48.624Z,1.00
2023-03-28T17:36:21.074Z,1.00
2023-03-28T17:38:48.991Z,1.00
2023-03-28T17:41:16.780Z,1.00
2023-03-28T17:43:43.739Z,1.00
2023-03-28T17:46:12.357Z,1.00
2023-03-28T17:48:41.772Z,1.00
2023-03-28T17:51:10.447Z,1.00
2023-03-28T17:53:39.444Z,1.00
2023-03-28T17:56:07.296Z,1.00
2023-03-28T17:58:34.595Z,1.00
2023-03-28T18:01:02.206Z,1.00
2023-03-28T18:03:29.062Z,1.00
2023-03-28T18:06:00.773Z,1.00
2023-03-28T18:08:28.459Z,1.00
2023-03-28T18:11:00.123Z,1.00
2023-03-28T18:13:26.945Z,1.00
2023-03-28T18:15:54.015Z,1.00
2023-03-28T18:18:20.962Z,1.00
2023-03-28T18:20:49.592Z,1.00
2023-03-28T18:23:18.085Z,1.00
2023-03-28T18:25:44.980Z,1.00
2023-03-28T18:28:11.895Z,1.00
2023-03-28T18:30:40.357Z,1.00
2023-03-28T18:33:07.661Z,1.00
2023-03-28T18:35:34.627Z,1.00
2023-03-28T18:38:01.467Z,1.00
2023-03-28T18:40:29.798Z,1.00
2023-03-28T18:42:56.832Z,1.00
2023-03-28T18:45:24.075Z,1.00
2023-03-28T18:47:51.676Z,1.00
2023-03-28T18:50:19.334Z,1.00
2023-03-28T18:52:46.502Z,1.00
2023-03-28T18:55:14.231Z,1.00
2023-03-28T18:57:42.720Z,1.00
2023-03-28T19:00:17.545Z,1.00
2023-03-28T19:02:45.055Z,1.00
2023-03-28T19:05:12.082Z,1.00
2023-03-28T19:07:39.245Z,1.00
2023-03-28T19:10:07.589Z,1.00
2023-03-28T19:12:36.029Z,1.00
2023-03-28T19:15:05.189Z,1.00
2023-03-28T19:17:33.267Z,1.00
2023-03-28T19:20:01.769Z,1.00
2023-03-28T19:22:28.577Z,1.00
2023-03-28T19:24:56.407Z,1.00
2023-03-28T19:27:23.451Z,1.00
2023-03-28T19:29:52.613Z,1.00
2023-03-28T19:32:22.039Z,1.00
2023-03-28T19:34:49.152Z,1.00
2023-03-28T19:37:16.356Z,1.00
2023-03-28T19:39:43.747Z,1.00
2023-03-28T19:42:11.034Z,1.00
2023-03-28T19:44:38.330Z,1.00
2023-03-28T19:47:05.568Z,1.00
2023-03-28T19:49:33.994Z,1.00
2023-03-28T19:52:01.086Z,1.00
2023-03-28T19:54:27.995Z,1.00
2023-03-28T19:56:54.977Z,1.00
2023-03-28T19:59:21.892Z,1.00
2023-03-28T20:01:49.247Z,1.00
2023-03-28T20:04:16.807Z,1.00
2023-03-28T20:06:45.617Z,1.00
2023-03-28T20:09:12.365Z,1.00
2023-03-28T20:11:42.259Z,1.00
2023-03-28T20:14:09.674Z,1.00
2023-03-28T20:16:37.754Z,1.00
2023-03-28T20:19:04.641Z,1.00
2023-03-28T20:21:31.533Z,1.00
2023-03-28T20:24:00.534Z,1.00
2023-03-28T20:26:27.799Z,1.00
2023-03-28T20:28:56.873Z,1.00
2023-03-28T20:31:24.086Z,1.00
2023-03-28T20:33:52.428Z,1.00
2023-03-28T20:36:19.880Z,1.00
2023-03-28T20:38:49.544Z,1.00
2023-03-28T20:41:18.938Z,1.00
2023-03-28T20:43:50.085Z,1.00
2023-03-28T20:46:18.748Z,1.00
2023-03-28T20:48:47.009Z,1.00
2023-03-28T20:51:17.626Z,1.00
2023-03-28T20:53:47.466Z,1.00
2023-03-28T20:56:16.105Z,1.00
2023-03-28T20:58:45.248Z,1.00
2023-03-28T21:01:14.498Z,1.00
2023-03-28T21:03:49.533Z,1.00
2023-03-28T21:06:18.000Z,1.00
2023-03-28T21:08:46.031Z,1.00
2023-03-28T21:11:14.444Z,1.00
2023-03-28T21:13:42.864Z,1.00
2023-03-28T21:16:12.474Z,1.00
2023-03-28T21:18:39.449Z,1.00
2023-03-28T21:21:07.529Z,1.00
2023-03-28T21:23:37.155Z,1.00
2023-03-28T21:26:05.019Z,1.00
2023-03-28T21:28:33.416Z,1.00
2023-03-28T21:31:02.282Z,1.00
2023-03-28T21:33:30.943Z,1.00
2023-03-28T21:35:58.522Z,1.00
2023-03-28T21:38:26.401Z,1.00
2023-03-28T21:40:53.834Z,1.00
2023-03-28T21:43:20.651Z,1.00
2023-03-28T21:45:48.107Z,1.00
2023-03-28T21:48:16.094Z,1.00
2023-03-28T21:50:53.852Z,1.00
2023-03-28T21:53:21.727Z,1.00
2023-03-28T21:55:48.882Z,1.00
2023-03-28T21:58:15.747Z,1.00
2023-03-28T22:00:42.797Z,1.00
2023-03-28T22:03:09.716Z,1.00
2023-03-28T22:05:42.040Z,1.00
2023-03-28T22:08:12.360Z,1.00
2023-03-28T22:10:45.768Z,1.00
2023-03-28T22:13:13.861Z,1.00
2023-03-28T22:15:41.310Z,1.00
2023-03-28T22:18:09.302Z,1.00
2023-03-28T22:20:38.168Z,1.00
2023-03-28T22:23:05.973Z,1.00
2023-03-28T22:25:38.261Z,1.00
2023-03-28T22:28:09.308Z,1.00
2023-03-28T22:30:37.801Z,1.00
2023-03-28T22:33:05.763Z,1.00
2023-03-28T22:35:33.644Z,1.00
2023-03-28T22:38:00.658Z,1.00
2023-03-28T22:40:28.771Z,1.00
2023-03-28T22:42:56.997Z,1.00
2023-03-28T22:45:25.048Z,1.00
2023-03-28T22:47:51.886Z,1.00
2023-03-28T22:50:19.662Z,1.00
2023-03-28T22:52:50.104Z,1.00
2023-03-28T22:55:17.732Z,1.00
2023-03-28T22:57:45.459Z,1.00
2023-03-28T23:00:15.528Z,1.00
2023-03-28T23:02:42.438Z,1.00
2023-03-28T23:05:11.318Z,1.00
2023-03-28T23:07:38.229Z,1.00
2023-03-28T23:10:08.633Z,1.00
2023-03-28T23:12:35.806Z,1.00
2023-03-28T23:15:03.076Z,1.00
2023-03-28T23:17:31.199Z,1.00
2023-03-28T23:19:58.764Z,1.00
2023-03-28T23:22:25.514Z,1.00
2023-03-28T23:24:52.783Z,1.00
2023-03-28T23:27:20.178Z,1.00
2023-03-28T23:29:47.302Z,1.00
2023-03-28T23:32:14.273Z,1.00
2023-03-28T23:34:43.752Z,1.00
2023-03-28T23:37:10.490Z,1.00
2023-03-28T23:39:38.523Z,1.00
2023-03-28T23:42:05.642Z,1.00
2023-03-28T23:44:34.444Z,1.00
2023-03-28T23:47:01.238Z,1.00
2023-03-28T23:49:28.352Z,1.00
2023-03-28T23:51:56.921Z,1.00
2023-03-28T23:54:25.592Z,1.00
2023-03-28T23:56:52.653Z,1.00
2023-03-28T23:59:19.578Z,1.00
